Time;durP1;ratioP1;P1;durP2;ratioP2;P2;SDS_P1;SDS_P2;PMS_P1;PMS_P2;Temp;Humidity;BMP_temperature;BMP_pressure;BME280_temperature;BME280_humidity;BME280_pressure;Samples;Min_cycle;Max_cycle;Signal;HPM_P1;HPM_P2
2022/09/04 00:00:14;;;;;;;4.90;3.40;;;;;;;21.47;62.12;99945.78;3142128;28;20070;-60
2022/09/04 00:01:54;;;;;;;5.85;3.35;;;;;;;21.44;62.29;99942.59;3145398;28;20051;-60
2022/09/04 00:03:38;;;;;;;5.85;3.25;;;;;;;21.41;62.21;99945.50;3145372;28;20052;-60
2022/09/04 00:05:16;;;;;;;6.13;3.53;;;;;;;21.39;62.40;99950.13;3141098;28;20060;-59
2022/09/04 00:07:01;;;;;;;6.30;3.85;;;;;;;21.36;62.41;99945.94;3140735;28;20048;-59
2022/09/04 00:08:43;;;;;;;7.10;3.92;;;;;;;21.34;62.38;99948.66;3145136;28;20052;-60
2022/09/04 00:10:23;;;;;;;8.37;3.63;;;;;;;21.32;62.08;99955.91;3145530;28;20072;-60
2022/09/04 00:12:03;;;;;;;6.53;4.03;;;;;;;21.28;62.32;99943.06;3145467;28;20815;-60
2022/09/04 00:13:41;;;;;;;5.57;3.70;;;;;;;21.24;62.36;99939.84;3145368;28;20135;-60
2022/09/04 00:15:19;;;;;;;7.43;3.83;;;;;;;21.33;62.50;99964.72;3145300;28;20048;-60
2022/09/04 00:16:57;;;;;;;7.43;3.95;;;;;;;21.33;62.38;99948.81;3145318;28;20037;-60
2022/09/04 00:18:34;;;;;;;6.18;4.07;;;;;;;21.35;62.47;99960.09;3145394;28;20048;-60
2022/09/04 00:20:11;;;;;;;4.35;3.80;;;;;;;21.35;62.35;99965.38;3145256;28;20048;-60
2022/09/04 00:21:50;;;;;;;4.60;3.55;;;;;;;21.37;62.70;99970.59;3140637;28;20539;-60
2022/09/04 00:23:27;;;;;;;5.90;4.15;;;;;;;21.29;62.47;99960.63;3145162;28;20060;-60
2022/09/04 00:25:07;;;;;;;6.35;3.85;;;;;;;21.34;63.02;99967.22;3145136;28;20513;-60
2022/09/04 00:26:49;;;;;;;7.13;4.53;;;;;;;21.38;62.71;99978.41;3145427;28;20052;-60
2022/09/04 00:28:34;;;;;;;4.90;3.83;;;;;;;21.39;62.61;99979.25;3145048;28;20135;-60
2022/09/04 00:30:10;;;;;;;6.38;3.63;;;;;;;21.39;62.29;99984.56;3145037;28;20095;-60
2022/09/04 00:31:47;;;;;;;6.50;3.55;;;;;;;21.34;62.64;99982.28;3145178;28;20048;-61
2022/09/04 00:33:24;;;;;;;4.35;3.67;;;;;;;21.33;62.16;99978.78;3145174;28;20053;-60
2022/09/04 00:35:05;;;;;;;5.05;3.70;;;;;;;21.32;62.40;99977.09;3145138;28;20066;-61
2022/09/04 00:36:45;;;;;;;4.97;3.97;;;;;;;21.30;62.16;99975.56;3144297;28;20544;-60
2022/09/04 00:38:31;;;;;;;10.30;3.97;;;;;;;21.30;62.45;99983.53;3141309;28;20111;-60
2022/09/04 00:40:08;;;;;;;4.95;3.80;;;;;;;21.31;62.14;99987.84;3145039;28;20570;-60
2022/09/04 00:41:52;;;;;;;12.23;4.32;;;;;;;21.31;62.42;99993.97;3145055;28;20203;-61
2022/09/04 00:43:51;;;;;;;5.18;3.97;;;;;;;21.32;62.18;99986.84;3145413;28;20048;-60
2022/09/04 00:45:40;;;;;;;6.53;3.60;;;;;;;21.33;62.02;100001.78;3139347;28;20063;-60
2022/09/04 00:47:39;;;;;;;4.70;3.65;;;;;;;21.34;62.22;100001.66;3140382;28;20060;-60
2022/09/04 00:49:29;;;;;;;6.18;4.20;;;;;;;21.30;62.25;100000.25;3143491;28;20127;-61
2022/09/04 00:51:16;;;;;;;5.93;4.40;;;;;;;21.33;62.29;100004.44;3144950;28;20044;-60
2022/09/04 00:53:07;;;;;;;6.93;3.55;;;;;;;21.30;62.41;100002.91;3139293;28;20051;-60
2022/09/04 00:54:50;;;;;;;7.13;3.85;;;;;;;21.28;62.14;99998.69;3141226;28;20055;-60
2022/09/04 00:56:43;;;;;;;7.65;4.05;;;;;;;21.23;62.39;99998.25;3144669;28;20052;-60
2022/09/04 00:58:30;;;;;;;4.85;3.97;;;;;;;21.22;62.40;99999.22;3143508;28;20045;-60
2022/09/04 01:00:09;;;;;;;7.28;3.97;;;;;;;21.21;62.27;99997.53;3144897;28;20045;-60
2022/09/04 01:01:46;;;;;;;7.82;4.20;;;;;;;21.21;62.12;100005.47;3144742;28;20087;-61
2022/09/04 01:03:40;;;;;;;8.10;4.32;;;;;;;21.21;62.40;100001.03;3145067;28;20139;-60
2022/09/04 01:05:27;;;;;;;7.32;4.55;;;;;;;21.24;62.18;100003.44;3146865;28;20622;-60
2022/09/04 01:07:16;;;;;;;11.75;4.35;;;;;;;21.26;62.25;100004.13;3147195;28;20045;-61
2022/09/04 01:09:16;;;;;;;6.18;4.70;;;;;;;21.26;61.93;100009.41;3147447;28;20045;-60
2022/09/04 01:10:59;;;;;;;9.38;4.88;;;;;;;21.26;61.94;100003.28;3147430;28;20056;-60
2022/09/04 01:12:39;;;;;;;7.20;4.53;;;;;;;21.25;62.29;100006.91;3142149;28;20072;-60
2022/09/04 01:14:17;;;;;;;7.32;4.38;;;;;;;21.24;62.31;100008.72;3147458;28;20509;-59
2022/09/04 01:15:58;;;;;;;6.85;4.25;;;;;;;21.20;62.43;100007.28;3147188;28;20055;-60
2022/09/04 01:17:38;;;;;;;10.05;4.18;;;;;;;21.19;62.79;100013.56;3147359;28;20079;-60
2022/09/04 01:19:24;;;;;;;7.78;4.55;;;;;;;21.19;62.58;100018.03;3147283;28;20052;-60
2022/09/04 01:21:10;;;;;;;8.30;4.68;;;;;;;21.18;62.87;100013.69;3147630;28;20049;-60
2022/09/04 01:23:07;;;;;;;8.60;4.57;;;;;;;21.07;63.09;100012.81;3147335;28;20056;-60
2022/09/04 01:24:53;;;;;;;12.45;4.38;;;;;;;20.97;63.75;100014.59;3147361;28;20434;-60
2022/09/04 01:26:37;;;;;;;9.00;4.68;;;;;;;20.93;64.49;100013.16;3141412;28;20040;-60
2022/09/04 01:28:17;;;;;;;17.70;5.15;;;;;;;20.85;64.60;100020.91;3141930;28;20449;-60
2022/09/04 01:29:57;;;;;;;10.80;4.75;;;;;;;20.79;65.08;100016.94;3147065;28;20052;-60
2022/09/04 01:31:38;;;;;;;10.48;4.95;;;;;;;20.73;65.29;100008.69;3147236;28;20053;-60
2022/09/04 01:33:17;;;;;;;10.27;4.85;;;;;;;20.67;65.67;100008.28;3147178;28;20048;-61
2022/09/04 01:34:59;;;;;;;13.60;5.25;;;;;;;20.62;66.23;100012.25;3147015;28;20521;-61
2022/09/04 01:36:41;;;;;;;7.22;5.00;;;;;;;20.57;66.42;100007.34;3146994;28;20053;-60
2022/09/04 01:38:19;;;;;;;11.32;4.68;;;;;;;20.55;66.49;100008.44;3146840;28;20064;-60
2022/09/04 01:40:11;;;;;;;9.77;5.30;;;;;;;20.58;66.49;100014.31;3147222;28;20414;-60
2022/09/04 01:41:49;;;;;;;10.65;4.65;;;;;;;20.61;66.06;100007.91;3147499;28;20045;-60
2022/09/04 01:43:22;;;;;;;9.13;4.95;;;;;;;20.64;66.47;100012.97;3147082;28;20136;-60
2022/09/04 01:44:53;;;;;;;;;;;;;;;20.64;66.22;100013.78;3147288;28;20055;-60
2022/09/04 01:46:46;;;;;;;7.35;4.65;;;;;;;20.67;65.88;100013.56;3147069;28;19920;-60
2022/09/04 01:48:22;;;;;;;9.50;4.68;;;;;;;20.69;66.04;100016.06;3146718;28;20048;-60
2022/09/04 01:50:00;;;;;;;8.10;5.05;;;;;;;20.68;66.08;100014.41;3147171;28;20055;-60
2022/09/04 01:51:39;;;;;;;7.72;4.88;;;;;;;20.60;66.61;100012.38;3146752;28;20052;-60
2022/09/04 01:53:13;;;;;;;8.93;5.35;;;;;;;20.55;67.06;100013.72;3146368;28;20051;-60
2022/09/04 01:54:55;;;;;;;7.95;5.60;;;;;;;20.50;67.32;100013.22;3146595;28;20086;-60
2022/09/04 01:56:37;;;;;;;7.32;5.25;;;;;;;20.51;67.24;100018.41;3146818;28;20139;-60
2022/09/04 01:58:18;;;;;;;8.05;5.80;;;;;;;20.52;67.14;100022.75;3146845;28;20052;-61
2022/09/04 02:00:01;;;;;;;7.15;5.15;;;;;;;20.54;67.33;100020.00;3146612;28;20418;-61
2022/09/04 02:01:40;;;;;;;7.45;5.30;;;;;;;20.57;67.15;100019.75;3146763;28;20052;-60
2022/09/04 02:03:22;;;;;;;8.23;5.30;;;;;;;20.59;67.13;100028.41;3146830;28;20044;-60
2022/09/04 02:05:01;;;;;;;9.40;5.43;;;;;;;20.61;67.09;100029.09;3146589;28;20143;-61
2022/09/04 02:06:41;;;;;;;13.57;5.53;;;;;;;20.55;66.93;100022.50;3140440;28;20052;-60
2022/09/04 02:08:29;;;;;;;6.90;5.07;;;;;;;20.62;66.88;100031.63;3146580;28;20037;-60
2022/09/04 02:10:12;;;;;;;10.15;7.10;;;;;;;20.62;67.16;100039.56;3141573;28;20456;-60
2022/09/04 02:11:50;;;;;;;8.13;5.30;;;;;;;20.63;67.21;100033.28;3146771;28;20060;-60
2022/09/04 02:13:32;;;;;;;9.73;5.38;;;;;;;20.65;67.14;100039.31;3146530;28;20044;-60
2022/09/04 02:15:12;;;;;;;8.65;6.30;;;;;;;20.67;66.85;100033.88;3146698;28;20105;-60
2022/09/04 02:16:55;;;;;;;6.75;5.22;;;;;;;20.67;67.19;100036.50;3146590;28;20131;-61
2022/09/04 02:18:43;;;;;;;10.23;6.10;;;;;;;20.67;67.36;100034.72;3146765;28;20048;-60
2022/09/04 02:20:24;;;;;;;8.85;5.63;;;;;;;20.68;67.25;100031.09;3146526;28;20059;-60
2022/09/04 02:22:10;;;;;;;12.23;8.70;;;;;;;20.70;67.12;100038.91;3146678;28;20440;-60
2022/09/04 02:23:50;;;;;;;11.35;6.03;;;;;;;20.69;67.00;100031.94;3148132;28;20075;-60
2022/09/04 02:25:28;;;;;;;6.93;5.13;;;;;;;20.63;66.99;100022.72;3146806;28;20575;-60
2022/09/04 02:27:07;;;;;;;6.60;5.20;;;;;;;20.70;66.92;100019.53;3146370;28;20414;-61
2022/09/04 02:28:51;;;;;;;7.25;4.78;;;;;;;20.70;67.29;100027.47;3146438;28;20437;-60
2022/09/04 02:30:21;;;;;;;5.88;4.68;;;;;;;20.68;67.16;100019.69;3146150;28;20052;-60
2022/09/04 02:32:03;;;;;;;6.95;5.22;;;;;;;20.66;67.22;100025.09;3146723;28;20274;-60
2022/09/04 02:33:40;;;;;;;6.05;5.22;;;;;;;20.66;67.26;100022.44;3146504;28;20422;-60
2022/09/04 02:35:21;;;;;;;7.13;4.55;;;;;;;20.67;67.43;100024.16;3146419;28;20063;-60
2022/09/04 02:37:00;;;;;;;5.82;4.70;;;;;;;20.55;67.32;100009.28;3146215;28;20049;-60
2022/09/04 02:38:44;;;;;;;5.90;4.90;;;;;;;20.57;67.52;100025.03;3146403;28;20040;-60
2022/09/04 02:40:22;;;;;;;5.85;4.30;;;;;;;20.49;68.05;100022.97;3140357;28;20048;-60
2022/09/04 02:42:04;;;;;;;5.25;4.72;;;;;;;20.48;67.53;100023.13;3140467;28;20052;-60
2022/09/04 02:43:51;;;;;;;6.25;4.60;;;;;;;20.46;67.80;100020.59;3138372;28;20045;-60
2022/09/04 02:45:34;;;;;;;9.38;4.95;;;;;;;20.46;67.82;100023.25;3141587;28;20040;-60
2022/09/04 02:47:18;;;;;;;8.80;5.38;;;;;;;20.46;67.92;100016.13;3142458;28;20357;-60
2022/09/04 02:49:06;;;;;;;9.07;5.10;;;;;;;20.43;67.92;100019.03;3146169;28;20433;-61
2022/09/04 02:50:52;;;;;;;6.43;4.90;;;;;;;20.47;67.83;100019.66;3144574;28;20049;-60
2022/09/04 02:52:41;;;;;;;5.70;4.95;;;;;;;20.43;67.67;100018.19;3146280;28;20057;-60
2022/09/04 02:54:23;;;;;;;9.63;5.25;;;;;;;20.34;68.24;100021.59;3140410;28;20052;-60
2022/09/04 02:56:31;;;;;;;7.40;4.82;;;;;;;20.30;67.90;100028.97;3140626;28;20048;-60
2022/09/04 02:58:15;;;;;;;8.13;5.97;;;;;;;20.30;68.17;100028.13;3143078;28;20752;-60
2022/09/04 03:00:03;;;;;;;7.30;5.03;;;;;;;20.31;67.78;100020.06;3146148;28;20045;-60
2022/09/04 03:01:42;;;;;;;6.53;5.07;;;;;;;20.32;67.98;100027.03;3140681;28;20088;-60
2022/09/04 03:03:19;;;;;;;7.35;5.30;;;;;;;20.35;68.13;100033.84;3146162;28;20063;-60
2022/09/04 03:04:59;;;;;;;6.45;5.07;;;;;;;20.28;68.16;100022.94;3146241;28;20059;-60
2022/09/04 03:06:47;;;;;;;9.68;5.97;;;;;;;20.29;67.69;100029.06;3139998;28;20045;-60
2022/09/04 03:08:23;;;;;;;6.38;5.03;;;;;;;20.27;67.92;100029.22;3140950;28;20071;-60
2022/09/04 03:10:02;;;;;;;7.05;5.22;;;;;;;20.27;68.03;100025.75;3145820;28;20095;-60
2022/09/04 03:11:38;;;;;;;7.53;5.47;;;;;;;20.18;68.55;100022.88;3146072;28;20048;-60
2022/09/04 03:13:20;;;;;;;8.38;5.28;;;;;;;20.13;68.63;100025.03;3146115;28;20043;-60
2022/09/04 03:15:01;;;;;;;7.93;4.95;;;;;;;20.05;68.70;100010.78;3145845;28;20642;-59
2022/09/04 03:16:40;;;;;;;8.05;5.20;;;;;;;20.13;68.75;100025.03;3145762;28;20048;-61
2022/09/04 03:18:20;;;;;;;7.13;5.65;;;;;;;20.12;68.92;100026.03;3145912;28;20049;-60
2022/09/04 03:19:56;;;;;;;9.00;5.10;;;;;;;20.12;68.54;100033.13;3145969;28;20445;-60
2022/09/04 03:21:35;;;;;;;7.53;5.75;;;;;;;20.13;68.77;100038.25;3141225;28;20056;-60
2022/09/04 03:23:15;;;;;;;7.18;5.38;;;;;;;20.13;68.51;100034.78;3145720;28;20052;-60
2022/09/04 03:25:05;;;;;;;7.28;5.65;;;;;;;20.11;68.83;100032.25;3145777;28;20044;-60
2022/09/04 03:26:41;;;;;;;8.98;5.50;;;;;;;20.11;68.75;100028.78;3145363;28;20048;-61
2022/09/04 03:28:25;;;;;;;8.07;5.93;;;;;;;20.10;68.55;100027.94;3145607;28;20044;-60
2022/09/04 03:30:02;;;;;;;9.35;6.40;;;;;;;19.98;68.71;100019.19;3145771;28;20059;-60
2022/09/04 03:31:43;;;;;;;7.88;6.50;;;;;;;20.08;68.94;100031.66;3145931;28;20132;-60
2022/09/04 03:33:20;;;;;;;10.55;5.75;;;;;;;20.08;69.10;100043.06;3145601;28;20052;-60
2022/09/04 03:35:02;;;;;;;9.10;5.57;;;;;;;20.06;69.18;100041.53;3145743;28;20048;-60
2022/09/04 03:36:44;;;;;;;10.00;6.10;;;;;;;20.08;69.25;100047.53;3145511;28;20048;-60
2022/09/04 03:38:23;;;;;;;7.90;5.57;;;;;;;20.06;69.09;100038.91;3145713;28;20052;-60
2022/09/04 03:40:11;;;;;;;9.98;6.35;;;;;;;20.07;69.34;100051.97;3145561;28;20056;-60
2022/09/04 03:41:58;;;;;;;9.90;5.55;;;;;;;20.01;69.30;100036.63;3145731;28;20052;-60
2022/09/04 03:43:54;;;;;;;8.57;6.13;;;;;;;20.09;69.43;100050.06;3139905;28;20430;-60
2022/09/04 03:45:41;;;;;;;10.15;6.85;;;;;;;20.09;69.45;100050.06;3141356;28;20382;-60
2022/09/04 03:47:22;;;;;;;9.60;5.30;;;;;;;20.09;69.51;100050.06;3145338;28;20536;-60
2022/09/04 03:49:07;;;;;;;9.63;5.90;;;;;;;20.05;69.81;100042.50;3145466;28;20060;-60
2022/09/04 03:50:49;;;;;;;8.43;6.05;;;;;;;19.98;69.97;100048.28;3145684;28;20056;-61
2022/09/04 03:52:31;;;;;;;9.52;5.82;;;;;;;19.95;70.09;100047.69;3145380;28;20082;-61
2022/09/04 03:54:12;;;;;;;8.57;6.28;;;;;;;19.97;69.83;100046.59;3145546;28;20123;-60
2022/09/04 03:56:02;;;;;;;10.13;6.07;;;;;;;19.98;69.98;100052.72;3139268;28;20052;-61
2022/09/04 03:57:48;;;;;;;7.05;5.13;;;;;;;19.97;69.69;100054.53;3144597;28;20058;-60
2022/09/04 03:59:35;;;;;;;6.82;5.05;;;;;;;19.93;69.74;100057.53;3145556;28;20048;-60
2022/09/04 04:01:18;;;;;;;7.22;5.32;;;;;;;19.92;70.03;100055.88;3145300;28;20052;-61
2022/09/04 04:03:06;;;;;;;7.75;5.35;;;;;;;19.91;69.79;100056.84;3145385;28;20528;-60
2022/09/04 04:05:22;;;;;;;12.23;5.60;;;;;;;19.91;69.86;100060.31;3145361;28;20060;-60
2022/09/04 04:07:07;;;;;;;10.27;5.90;;;;;;;19.91;69.68;100076.19;3143099;28;20052;-60
2022/09/04 04:09:12;;;;;;;8.18;5.32;;;;;;;19.93;69.63;100079.50;3145018;28;20359;-61
2022/09/04 04:10:56;;;;;;;7.90;5.13;;;;;;;19.92;69.77;100083.13;3135790;28;20048;-60
2022/09/04 04:12:41;;;;;;;7.63;5.13;;;;;;;19.91;69.87;100088.56;3141663;28;20083;-60
2022/09/04 04:14:37;;;;;;;6.90;4.88;;;;;;;19.87;69.83;100090.56;3145274;28;20183;-60
2022/09/04 04:16:29;;;;;;;9.13;5.40;;;;;;;19.84;69.71;100097.91;3148292;28;20052;-60
2022/09/04 04:18:30;;;;;;;9.73;5.45;;;;;;;19.78;70.04;100100.06;3139879;28;20041;-60
2022/09/04 04:20:15;;;;;;;8.27;5.22;;;;;;;19.73;70.09;100102.25;3145245;28;20048;-60
2022/09/04 04:22:03;;;;;;;10.68;5.32;;;;;;;19.69;70.04;100107.88;3145200;28;20418;-60
2022/09/04 04:23:55;;;;;;;9.85;5.60;;;;;;;19.66;70.08;100101.03;3145384;28;20048;-60
2022/09/04 04:25:57;;;;;;;7.28;5.30;;;;;;;19.63;70.38;100113.63;3145154;28;20052;-60
2022/09/04 04:27:43;;;;;;;8.73;5.43;;;;;;;19.58;70.54;100116.63;3145018;28;20484;-60
2022/09/04 04:29:27;;;;;;;7.70;5.75;;;;;;;19.57;70.55;100119.38;3145053;28;20049;-60
2022/09/04 04:31:10;;;;;;;11.43;6.35;;;;;;;19.57;71.00;100122.84;3144866;28;20049;-60
2022/09/04 04:33:00;;;;;;;7.10;5.05;;;;;;;19.58;70.95;100114.00;3145453;28;20144;-60
2022/09/04 04:34:41;;;;;;;8.63;6.22;;;;;;;19.57;70.79;100116.75;3145467;28;20060;-60
2022/09/04 04:36:21;;;;;;;9.10;6.28;;;;;;;19.57;70.81;100119.38;3144428;28;20433;-60
2022/09/04 04:38:08;;;;;;;8.20;5.30;;;;;;;19.55;71.04;100120.34;3144393;28;20040;-60
2022/09/04 04:39:49;;;;;;;6.75;4.93;;;;;;;19.50;71.00;100125.16;3144255;28;20132;-61
2022/09/04 04:42:02;;;;;;;7.35;5.32;;;;;;;19.46;70.88;100126.34;3144943;28;20059;-60
2022/09/04 04:43:36;;;;;;;7.63;5.05;;;;;;;19.40;71.14;100131.25;3139423;28;20048;-60
2022/09/04 04:47:34;;;;;;;6.40;5.32;;;;;;;19.36;71.42;100137.72;3144380;28;20052;-60
2022/09/04 04:49:25;;;;;;;7.65;5.03;;;;;;;19.37;71.25;100142.03;3138892;28;20967;-60
2022/09/04 04:51:07;;;;;;;7.07;4.90;;;;;;;19.36;71.48;100146.47;3141166;28;20044;-60
2022/09/04 04:52:50;;;;;;;7.28;5.13;;;;;;;19.35;71.58;100141.34;3144975;28;20052;-60
2022/09/04 04:54:46;;;;;;;8.90;4.80;;;;;;;19.34;71.41;100145.75;3145001;28;20473;-60
2022/09/04 04:56:23;;;;;;;8.68;4.85;;;;;;;19.34;71.41;100145.75;3144790;28;20044;-60
2022/09/04 04:58:19;;;;;;;6.38;4.88;;;;;;;19.36;71.54;100145.66;3145140;28;20055;-60
2022/09/04 05:00:05;;;;;;;7.32;4.70;;;;;;;19.37;71.75;100147.31;3144905;28;20049;-60
2022/09/04 05:01:46;;;;;;;7.07;4.85;;;;;;;19.41;71.52;100149.63;3140474;28;20057;-60
2022/09/04 05:03:26;;;;;;;7.50;4.70;;;;;;;19.41;71.24;100149.63;3145055;28;20053;-60
2022/09/04 05:05:11;;;;;;;6.90;4.47;;;;;;;19.44;71.30;100149.38;3144630;28;20453;-60
2022/09/04 05:06:52;;;;;;;8.48;4.90;;;;;;;19.42;71.44;100153.94;3145009;28;20058;-60
2022/09/04 05:08:39;;;;;;;6.28;4.97;;;;;;;19.43;71.25;100157.41;3144563;28;20056;-60
2022/09/04 05:10:18;;;;;;;7.43;5.55;;;;;;;19.42;71.19;100158.38;3144989;28;20051;-60
2022/09/04 05:11:59;;;;;;;6.97;4.38;;;;;;;19.42;71.49;100161.88;3148298;28;20070;-61
2022/09/04 05:13:39;;;;;;;8.68;5.25;;;;;;;19.42;71.33;100161.88;3145867;28;20159;-60
2022/09/04 05:15:18;;;;;;;6.47;5.15;;;;;;;19.41;71.32;100170.75;3144500;28;20522;-60
2022/09/04 05:16:57;;;;;;;7.97;5.28;;;;;;;19.41;71.73;100168.13;3144855;28;20113;-60
2022/09/04 05:18:32;;;;;;;8.73;5.40;;;;;;;19.42;71.47;100179.50;3144846;28;20060;-60
2022/09/04 05:20:25;;;;;;;7.88;5.50;;;;;;;19.42;71.23;100185.63;3144719;28;20072;-60
2022/09/04 05:22:05;;;;;;;7.05;5.55;;;;;;;19.44;71.20;100183.72;3138939;28;20500;-60
2022/09/04 05:23:42;;;;;;;6.50;5.10;;;;;;;19.42;71.33;100177.72;3139159;28;20139;-60
2022/09/04 05:25:23;;;;;;;6.50;5.13;;;;;;;19.43;71.43;100183.81;3138856;28;20063;-60
2022/09/04 05:26:58;;;;;;;6.47;5.00;;;;;;;19.44;71.14;100188.16;3139395;28;20569;-60
2022/09/04 05:28:39;;;;;;;6.15;4.90;;;;;;;19.44;71.36;100186.38;3138711;28;20041;-60
2022/09/04 05:30:15;;;;;;;7.85;5.25;;;;;;;19.44;71.08;100189.00;3138936;28;20433;-60
2022/09/04 05:31:54;;;;;;;8.10;5.43;;;;;;;19.47;71.25;100187.94;3138787;28;20131;-60
2022/09/04 05:33:36;;;;;;;9.80;5.35;;;;;;;19.41;71.55;100197.16;3143372;28;20410;-60
2022/09/04 05:35:17;;;;;;;9.48;5.45;;;;;;;19.40;71.90;100191.97;3139368;28;20040;-60
2022/09/04 05:37:02;;;;;;;6.95;5.15;;;;;;;19.43;71.62;100203.19;3139617;28;20129;-60
2022/09/04 05:38:42;;;;;;;5.63;4.55;;;;;;;19.46;71.47;100210.00;3144180;28;20076;-60
2022/09/04 05:40:23;;;;;;;15.77;5.20;;;;;;;19.52;71.26;100209.53;3144491;28;20067;-60
2022/09/04 05:42:10;;;;;;;7.47;5.05;;;;;;;19.55;71.42;100204.88;3144583;28;20062;-60
2022/09/04 05:44:07;;;;;;;7.88;4.93;;;;;;;19.60;70.73;100206.31;3144661;28;20044;-60
2022/09/04 05:45:52;;;;;;;6.60;4.97;;;;;;;19.63;70.60;100206.94;3144568;28;20105;-60
2022/09/04 05:47:42;;;;;;;6.78;4.95;;;;;;;19.66;70.37;100211.16;3142794;28;20057;-60
2022/09/04 05:49:24;;;;;;;6.90;5.15;;;;;;;19.65;70.55;100207.69;3140160;28;20063;-60
2022/09/04 05:51:07;;;;;;;6.25;4.57;;;;;;;19.66;70.18;100208.53;3146287;28;20045;-61
2022/09/04 05:52:59;;;;;;;8.25;4.78;;;;;;;19.64;70.51;100206.00;3147017;28;20055;-61
2022/09/04 05:55:04;;;;;;;7.07;5.10;;;;;;;19.66;70.49;100208.53;3146690;28;20048;-61
2022/09/04 05:56:50;;;;;;;8.57;5.63;;;;;;;19.65;70.59;100205.06;3142568;28;20053;-61
2022/09/04 05:58:49;;;;;;;9.20;5.68;;;;;;;19.66;70.61;100211.16;3146643;28;20051;-61
2022/09/04 06:00:21;;;;;;;6.68;4.32;;;;;;;19.67;70.40;100213.72;3146764;28;20596;-61
2022/09/04 06:02:07;;;;;;;7.22;5.20;;;;;;;19.72;70.48;100210.69;3147028;28;20065;-61
2022/09/04 06:03:59;;;;;;;7.82;4.97;;;;;;;19.72;70.59;100206.25;3146904;28;20103;-61
2022/09/04 06:05:42;;;;;;;11.48;5.18;;;;;;;19.77;70.47;100206.75;3146678;28;20056;-61
2022/09/04 06:07:21;;;;;;;8.65;5.30;;;;;;;19.81;70.45;100206.50;3146399;28;20064;-60
2022/09/04 06:09:19;;;;;;;8.52;5.10;;;;;;;19.87;70.36;100203.38;3149120;28;20044;-60
2022/09/04 06:11:04;;;;;;;6.75;5.07;;;;;;;19.93;70.13;100202.91;3146945;28;20051;-60
2022/09/04 06:13:09;;;;;;;9.82;5.25;;;;;;;20.00;69.82;100198.84;3146940;28;20055;-60
2022/09/04 06:15:00;;;;;;;9.13;4.72;;;;;;;20.04;69.33;100195.00;3146829;28;20125;-60
2022/09/04 06:16:48;;;;;;;12.02;5.63;;;;;;;20.06;69.14;100202.81;3147010;28;20040;-60
2022/09/04 06:18:40;;;;;;;9.50;5.75;;;;;;;20.08;69.06;100201.72;3146420;28;20053;-61
2022/09/04 06:20:29;;;;;;;8.38;5.30;;;;;;;20.13;68.98;100199.56;3146723;28;20477;-60
2022/09/04 06:22:32;;;;;;;9.93;5.25;;;;;;;20.14;68.71;100206.53;3141893;28;20102;-59
2022/09/04 06:24:22;;;;;;;7.65;5.30;;;;;;;20.16;68.96;100196.66;3132249;28;20056;-59
2022/09/04 06:26:15;;;;;;;11.00;5.65;;;;;;;20.18;68.89;100191.28;3145204;28;20063;-59
2022/09/04 06:28:08;;;;;;;8.05;5.07;;;;;;;20.19;68.69;100183.19;3146792;28;20063;-59
2022/09/04 06:29:59;;;;;;;8.10;5.13;;;;;;;20.22;68.33;100190.06;3145150;28;20052;-59
2022/09/04 06:32:05;;;;;;;9.02;5.78;;;;;;;20.23;68.18;100184.66;3146700;28;20064;-60
2022/09/04 06:33:49;;;;;;;12.63;5.18;;;;;;;20.29;68.17;100185.97;3142805;28;20446;-59
2022/09/04 06:35:42;;;;;;;13.00;5.30;;;;;;;20.35;68.80;100193.41;3146264;28;20072;-59
2022/09/04 06:37:29;;;;;;;8.18;5.13;;;;;;;20.40;68.29;100196.50;3146419;28;20063;-60
2022/09/04 06:39:25;;;;;;;9.43;5.03;;;;;;;20.42;68.01;100196.41;3144314;28;20072;-60
2022/09/04 06:41:16;;;;;;;6.85;4.70;;;;;;;20.46;67.72;100200.47;3142806;28;20055;-59
2022/09/04 06:43:06;;;;;;;10.40;5.25;;;;;;;20.47;67.97;100196.88;3146009;28;20044;-59
2022/09/04 06:44:51;;;;;;;9.75;5.40;;;;;;;20.49;67.87;100194.09;3146417;28;20158;-59
2022/09/04 06:46:27;;;;;;;6.22;4.97;;;;;;;20.50;67.68;100201.94;3146340;28;20052;-59
2022/09/04 06:48:13;;;;;;;7.88;4.97;;;;;;;20.52;67.55;100201.78;3146291;28;20052;-59
2022/09/04 06:50:04;;;;;;;8.18;5.10;;;;;;;20.54;67.23;100200.75;3141403;28;20109;-59
2022/09/04 06:51:53;;;;;;;8.20;5.60;;;;;;;20.53;67.05;100195.56;3146053;28;20056;-60
2022/09/04 06:53:38;;;;;;;10.02;5.45;;;;;;;20.51;67.27;100192.19;3146127;28;20049;-59
2022/09/04 06:55:19;;;;;;;7.35;5.18;;;;;;;20.52;67.58;100194.72;3146002;28;20044;-59
2022/09/04 06:57:09;;;;;;;11.30;5.50;;;;;;;20.51;67.22;100192.19;3146104;28;20048;-61
2022/09/04 06:59:06;;;;;;;8.38;4.88;;;;;;;20.42;68.08;100189.31;3146471;28;20045;-61
2022/09/04 07:00:43;;;;;;;9.60;5.50;;;;;;;20.48;68.01;100193.28;3146255;28;20049;-61
2022/09/04 07:02:26;;;;;;;6.95;5.25;;;;;;;20.55;67.83;100193.63;3145275;28;20118;-60
2022/09/04 07:04:10;;;;;;;6.32;4.90;;;;;;;20.60;67.94;100188.81;3146401;28;20055;-61
2022/09/04 07:05:53;;;;;;;6.47;5.05;;;;;;;20.68;67.61;100183.75;3142921;28;20134;-61
2022/09/04 07:07:31;;;;;;;8.50;4.50;;;;;;;20.77;67.23;100175.06;3145964;28;20492;-61
2022/09/04 07:09:12;;;;;;;6.28;4.38;;;;;;;20.86;67.14;100169.00;3146058;28;20479;-61
2022/09/04 07:10:51;;;;;;;7.72;4.82;;;;;;;20.96;66.92;100176.19;3146268;28;20078;-61
2022/09/04 07:12:55;;;;;;;5.25;4.45;;;;;;;21.12;66.64;100176.63;3146116;28;20056;-61
2022/09/04 07:14:51;;;;;;;7.05;5.47;;;;;;;21.29;66.23;100175.19;3140641;28;20514;-61
2022/09/04 07:16:37;;;;;;;6.20;4.53;;;;;;;21.47;65.77;100171.00;3145975;28;20634;-60
2022/09/04 07:18:23;;;;;;;5.82;4.55;;;;;;;21.67;65.06;100171.97;3145822;28;20056;-59
2022/09/04 07:20:08;;;;;;;7.07;4.55;;;;;;;21.86;64.92;100176.53;3145955;28;20055;-58
2022/09/04 07:21:50;;;;;;;9.88;4.65;;;;;;;22.04;64.48;100174.94;3145711;28;20048;-59
2022/09/04 07:23:34;;;;;;;8.68;4.85;;;;;;;22.18;62.90;100184.38;3139718;28;20052;-59
2022/09/04 07:25:21;;;;;;;;;;;;;;;22.21;62.51;100177.94;3140686;28;20056;-59
2022/09/04 07:26:59;;;;;;;9.50;4.78;;;;;;;22.38;62.23;100184.41;3141331;28;19977;-59
2022/09/04 07:28:42;;;;;;;8.65;4.93;;;;;;;22.52;61.66;100180.56;3145496;28;20056;-59
2022/09/04 07:30:18;;;;;;;6.20;4.47;;;;;;;22.63;60.92;100178.63;3145167;28;20056;-59
2022/09/04 07:31:59;;;;;;;7.63;4.35;;;;;;;22.80;60.77;100170.94;3145746;28;20359;-59
2022/09/04 07:33:38;;;;;;;8.90;5.20;;;;;;;22.93;59.69;100166.19;3145716;28;20470;-60
2022/09/04 07:35:18;;;;;;;6.55;4.45;;;;;;;23.09;59.28;100168.31;3145560;28;20132;-59
2022/09/04 07:36:56;;;;;;;7.35;4.63;;;;;;;23.30;59.30;100165.50;3141917;28;20044;-59
2022/09/04 07:38:38;;;;;;;7.90;5.03;;;;;;;23.57;58.06;100167.38;3145439;28;20531;-59
2022/09/04 07:40:16;;;;;;;9.50;4.55;;;;;;;23.80;57.20;100166.09;3145713;28;20584;-59
2022/09/04 07:41:57;;;;;;;9.57;5.10;;;;;;;24.12;56.94;100159.53;3145816;28;20061;-59
2022/09/04 07:43:42;;;;;;;6.95;4.78;;;;;;;24.48;56.39;100171.09;3145719;28;20048;-59
2022/09/04 07:45:23;;;;;;;8.18;5.25;;;;;;;24.71;55.23;100160.03;3145415;28;20052;-59
2022/09/04 07:47:10;;;;;;;8.38;5.07;;;;;;;24.90;54.89;100162.53;3145325;28;20048;-60
2022/09/04 07:48:48;;;;;;;6.43;5.15;;;;;;;25.06;54.52;100158.34;3144856;28;20405;-59
2022/09/04 07:50:24;;;;;;;6.13;5.10;;;;;;;25.10;54.23;100165.03;3145216;28;20052;-60
2022/09/04 07:52:03;;;;;;;9.70;5.65;;;;;;;25.07;53.96;100163.50;3145317;28;20045;-59
2022/09/04 07:53:53;;;;;;;6.90;5.30;;;;;;;25.08;53.56;100173.19;3145103;28;20469;-60
2022/09/04 07:55:36;;;;;;;7.38;5.70;;;;;;;25.16;53.06;100169.78;3145521;28;20465;-60
2022/09/04 07:57:32;;;;;;;8.98;4.88;;;;;;;25.36;52.74;100173.09;3145224;28;20523;-60
2022/09/04 07:59:29;;;;;;;7.03;5.18;;;;;;;25.65;51.99;100175.47;3145579;28;20056;-61
2022/09/04 08:01:18;;;;;;;8.35;5.50;;;;;;;25.84;51.99;100174.41;3147415;28;20044;-60
2022/09/04 08:03:12;;;;;;;8.30;5.50;;;;;;;26.07;50.51;100183.53;3139906;28;20529;-60
2022/09/04 08:05:23;;;;;;;10.82;6.03;;;;;;;26.15;50.93;100182.75;3141650;28;20629;-60
2022/09/04 08:06:59;;;;;;;6.88;5.20;;;;;;;26.28;50.92;100176.94;3136901;28;20418;-61
2022/09/04 08:09:18;;;;;;;8.63;5.93;;;;;;;26.43;50.46;100186.00;3140763;28;20570;-60